Latest Weather Observations for Forbes

IDN60801

Issued at 7:12 pm EST Sunday 19 April 2015 (issued every 30 minutes, with the page automatically refreshed every 10 minutes)

About weather observations | Map of weather stations | Latest weather observations for NSW | Other Formats
Station Details ID: 065103 Name: FORBES AIRPORT AWS Lat: -33.36 Lon: 147.92 Height: 230.4 m
Data from the previous 72 hours. | See also: Recent months at Forbes
Date/Time
EST
Temp
°C
App
Temp
°C
Dew
Point
Rel
Hum
%
Delta-T
°C
Wind Press
QNH
hPa
Press
MSL
hPa
Rain
since 9 am
mm
Dir
 
Spd
km/h
Gust
km/h
Spd
kts
Gust
kts
19/07:00pm 12.2 8.0 5.8 65 3.0 SSW 17 20 9 11 1025.1 1024.7 0.0
19/06:30pm 12.6 8.8 5.8 63 3.2 SW 15 20 8 11 1024.6 1024.2 0.0
19/06:00pm 13.4 8.5 5.1 57 3.9 SSW 20 28 11 15 1024.3 1023.9 0.0
19/05:30pm 14.1 9.1 4.7 53 4.4 SSW 20 30 11 16 1023.9 1023.5 0.0
19/05:00pm 15.1 10.2 5.3 52 4.7 SSW 20 30 11 16 1023.5 1023.1 0.0
19/04:30pm 16.2 10.4 4.6 46 5.5 SSW 24 33 13 18 1023.4 1023.0 0.0
19/04:00pm 15.9 9.6 4.0 45 5.6 SW 26 37 14 20 1023.3 1022.9 0.0
19/03:30pm 15.7 9.8 4.1 46 5.4 SW 24 32 13 17 1023.1 1022.6 0.0
19/03:00pm 16.9 10.9 3.2 40 6.3 SW 24 33 13 18 1023.0 1022.5 0.0
19/02:30pm 16.2 11.4 5.8 50 5.1 SW 20 30 11 16 1022.8 1022.3 0.0
19/02:00pm 16.4 10.8 5.4 48 5.3 SW 24 33 13 18 1022.6 1022.1 0.0
19/01:30pm 16.4 11.3 7.6 56 4.4 SW 24 35 13 19 1022.5 1022.0 0.0
19/01:00pm 15.3 10.6 9.4 68 3.1 SW 24 30 13 16 1022.7 1022.2 0.0
19/12:30pm 14.2 9.9 9.4 73 2.5 SW 22 30 12 16 1022.8 1022.3 0.0
19/12:00pm 13.2 8.6 9.5 78 1.9 SW 24 32 13 17 1023.2 1022.8 0.0
19/11:30am 13.1 9.6 10.3 83 1.5 SW 19 28 10 15 1023.3 1022.9 0.0
19/11:00am 13.1 9.8 10.8 86 1.2 SW 19 26 10 14 1023.0 1022.5 0.0
19/10:30am 13.2 9.3 10.9 86 1.2 SW 22 30 12 16 1022.8 1022.3 0.0
19/10:00am 13.1 9.8 11.7 91 0.8 SW 20 35 11 19 1022.5 1022.0 0.0
19/09:30am 13.5 11.4 12.4 93 0.6 SW 15 20 8 11 1022.3 1021.9 0.0
19/09:00am 13.5 11.7 12.1 91 0.8 SW 13 19 7 10 1021.9 1021.5 4.0
19/08:30am 13.4 11.6 12.1 92 0.7 SSW 13 15 7 8 1021.6 1021.2 4.0
19/08:00am 13.2 11.8 12.3 94 0.5 SSW 11 13 6 7 1021.2 1020.8 4.0
19/07:30am 12.3 11.2 12.1 99 0.1 WSW 9 17 5 9 1020.8 1020.4 4.0
19/07:00am 10.9 11.1 10.4 97 0.3 CALM 0 0 0 0 1020.3 1019.9 4.0
19/06:30am 10.8 10.9 10.3 97 0.3 CALM 0 0 0 0 1019.6 1019.2 4.0
19/06:00am 11.1 11.3 10.5 96 0.3 CALM 0 0 0 0 1019.3 1018.8 4.0
19/05:30am 11.9 11.0 11.3 96 0.3 SW 7 11 4 6 1018.8 1018.3 4.0
19/05:00am 12.0 12.4 11.2 95 0.4 CALM 0 0 0 0 1019.0 1018.5 4.0
19/04:30am 12.6 13.2 12.0 96 0.3 CALM 0 0 0 0 1018.2 1017.7 4.0
19/04:00am 12.7 13.0 12.1 96 0.3 NNE 2 7 1 4 1018.0 1017.5 4.0
19/03:30am 12.6 12.7 11.5 93 0.6 SW 2 6 1 3 1017.9 1017.4 4.0
19/03:00am 12.8 11.9 11.4 91 0.7 SW 7 9 4 5 1017.5 1017.1 4.0
19/02:30am 13.1 12.0 11.8 92 0.7 SW 9 13 5 7 1017.6 1017.2 4.0
19/02:00am 13.2 12.1 11.8 91 0.8 SW 9 13 5 7 1017.9 1017.4 4.0
19/01:30am 13.6 12.1 12.0 90 0.9 SW 11 13 6 7 1018.2 1017.7 4.0
19/01:00am 14.0 11.1 12.2 89 1.0 SW 19 24 10 13 1018.2 1017.7 4.0
19/12:30am 14.4 10.4 13.0 91 0.8 SW 26 39 14 21 1018.0 1017.5 4.0
19/12:16am 15.5 11.6 14.5 94 0.6 SW 28 41 15 22 1017.7 1017.3 4.0
19/12:00am 16.5 15.7 16.0 97 0.3 W 15 20 8 11 1017.4 1017.0 4.0
 
Date/Time
EST
Temp
°C
App
Temp
°C
Dew
Point
Rel
Hum
%
Delta-T
°C
Wind Press
QNH
hPa
Press
MSL
hPa
Rain
since 9 am
mm
Dir
 
Spd
km/h
Gust
km/h
Spd
kts
Gust
kts
18/11:30pm 16.3 15.8 15.8 97 0.3 WSW 13 17 7 9 1017.4 1017.0 4.0
18/11:00pm 16.7 15.5 16.1 96 0.4 WNW 17 24 9 13 1017.6 1017.2 2.0
18/10:30pm 16.8 16.7 16.0 95 0.5 NW 11 13 6 7 1017.7 1017.3 1.8
18/10:00pm 16.6 16.4 15.8 95 0.5 NNW 11 13 6 7 1017.5 1017.1 1.6
18/09:30pm 16.5 16.7 15.7 95 0.5 NW 9 13 5 7 1017.1 1016.7 1.6
18/09:00pm 16.6 17.7 15.5 93 0.6 NE 4 13 2 7 1017.2 1016.8 1.6
18/08:30pm 17.1 17.5 15.4 90 1.0 W 7 13 4 7 1016.8 1016.4 1.6
18/08:00pm 17.1 17.5 15.4 90 1.0 W 7 13 4 7 1016.6 1016.2 1.6
18/07:30pm 17.3 15.9 15.5 89 1.1 WNW 17 24 9 13 1016.8 1016.4 1.6
18/07:00pm 17.5 17.2 15.5 88 1.2 W 11 20 6 11 1015.8 1015.4 1.6
18/06:30pm 17.5 16.2 15.7 89 1.1 W 17 24 9 13 1016.1 1015.7 1.6
18/06:00pm 17.8 16.3 15.4 86 1.4 W 17 20 9 11 1015.6 1015.1 1.6
18/05:30pm 18.1 16.8 15.7 86 1.4 WSW 17 24 9 13 1015.0 1014.5 1.6
18/05:00pm 19.1 17.5 16.5 85 1.6 W 20 30 11 16 1014.5 1014.0 1.6
18/04:30pm 19.3 18.6 16.5 84 1.7 WSW 15 22 8 12 1014.1 1013.6 1.6
18/04:00pm 19.2 20.0 17.2 88 1.2 W 9 11 5 6 1014.1 1013.6 1.6
18/03:30pm 19.0 19.3 17.0 88 1.2 W 11 17 6 9 1014.0 1013.5 1.6
18/03:00pm 20.2 17.1 16.6 80 2.2 NNW 28 35 15 19 1013.5 1013.0 0.2
18/02:30pm 22.9 20.2 15.5 63 4.5 NNW 24 32 13 17 1013.1 1012.7 0.0
18/02:00pm 24.5 21.6 15.1 55 5.7 N 24 33 13 18 1013.7 1013.2 0.0
18/01:30pm 24.4 21.1 15.1 56 5.6 N 26 39 14 21 1014.0 1013.5 0.0
18/01:00pm 24.7 20.1 15.1 55 5.8 N 33 41 18 22 1014.4 1013.9 0.0
18/12:30pm 24.6 20.6 15.2 55 5.7 N 30 39 16 21 1014.9 1014.4 0.0
18/12:00pm 24.1 19.7 15.1 57 5.4 NNW 32 43 17 23 1015.6 1015.1 0.0
18/11:30am 24.0 19.5 15.5 59 5.2 N 33 41 18 22 1016.2 1015.8 0.0
18/11:00am 24.0 20.0 15.2 58 5.3 NNW 30 41 16 22 1016.6 1016.2 0.0
18/10:30am 23.5 19.0 15.0 59 5.1 N 32 37 17 20 1016.9 1016.5 0.0
18/10:00am 22.2 18.0 14.6 62 4.5 N 30 39 16 21 1017.4 1017.0 0.0
18/09:30am 21.5 18.0 14.4 64 4.2 NNW 26 33 14 18 1018.1 1017.6 0.0
18/09:00am 21.4 18.2 14.3 64 4.2 NNW 24 32 13 17 1018.1 1017.6 0.2
18/08:30am 21.3 19.1 14.5 65 4.0 NNW 19 24 10 13 1018.0 1017.5 0.2
18/08:00am 20.7 18.2 14.1 66 3.9 N 20 28 11 15 1017.7 1017.3 0.2
18/07:30am 20.4 18.5 14.1 67 3.7 NNW 17 24 9 13 1017.5 1017.1 0.2
18/07:00am 20.0 17.6 13.9 68 3.5 N 19 24 10 13 1016.9 1016.5 0.2
18/06:30am 19.9 17.9 14.0 69 3.4 NNW 17 24 9 13 1017.0 1016.6 0.2
18/06:00am 20.7 17.8 14.1 66 3.9 NNW 22 32 12 17 1016.8 1016.4 0.2
18/05:30am 21.1 16.1 14.0 64 4.2 N 33 44 18 24 1015.7 1015.3 0.2
18/05:00am 21.2 17.3 14.4 65 4.0 N 28 33 15 18 1015.7 1015.3 0.2
18/04:30am 20.9 17.3 14.1 65 4.0 N 26 35 14 19 1015.5 1015.0 0.2
18/04:00am 20.6 18.2 14.5 68 3.6 N 20 28 11 15 1015.3 1014.8 0.2
18/03:30am 20.3 17.7 14.9 71 3.2 N 22 28 12 15 1015.3 1014.8 0.2
18/03:00am 20.1 17.6 15.1 73 3.0 N 22 30 12 16 1015.5 1015.0 0.2
18/02:30am 20.5 17.8 15.5 73 3.0 N 24 30 13 16 1015.6 1015.1 0.2
18/02:00am 20.9 17.5 15.7 72 3.1 N 28 37 15 20 1015.9 1015.5 0.2
18/01:30am 21.1 17.2 15.6 71 3.3 NNE 30 37 16 20 1016.0 1015.6 0.2
18/01:00am 21.2 17.8 15.7 71 3.3 NNE 28 33 15 18 1016.1 1015.7 0.2
18/12:30am 21.2 18.6 16.0 72 3.2 NNE 24 30 13 16 1016.1 1015.7 0.2
18/12:00am 21.2 18.5 15.7 71 3.3 NNE 24 30 13 16 1016.2 1015.8 0.2
 
Date/Time
EST
Temp
°C
App
Temp
°C
Dew
Point
Rel
Hum
%
Delta-T
°C
Wind Press
QNH
hPa
Press
MSL
hPa
Rain
since 9 am
mm
Dir
 
Spd
km/h
Gust
km/h
Spd
kts
Gust
kts
17/11:30pm 20.3 18.5 15.5 74 2.9 NNE 19 22 10 12 1016.8 1016.4 0.2
17/11:00pm 19.0 19.5 16.6 86 1.5 NNE 9 13 5 7 1017.4 1017.0 0.2
17/10:30pm 18.1 20.4 16.8 92 0.8 CALM 0 0 0 0 1017.6 1017.2 0.2
17/10:00pm 17.9 20.1 16.4 91 0.9 CALM 0 0 0 0 1017.6 1017.2 0.2
17/09:30pm 18.2 20.4 16.5 90 1.0 CALM 0 6 0 3 1017.7 1017.3 0.2
17/09:00pm 18.3 18.5 16.8 91 0.9 E 11 13 6 7 1017.7 1017.3 0.2
17/08:30pm 18.4 18.6 16.7 90 1.0 E 11 13 6 7 1017.7 1017.3 0.2
17/08:00pm 18.6 19.2 16.8 89 1.1 ESE 9 11 5 6 1017.7 1017.3 0.2
17/07:30pm 18.7 19.6 16.5 87 1.3 SSE 7 9 4 5 1017.7 1017.3 0.2
17/07:00pm 19.2 20.2 16.8 86 1.5 ESE 7 11 4 6 1017.6 1017.2 0.2
17/06:30pm 19.5 19.8 16.9 85 1.6 SE 11 15 6 8 1017.5 1017.1 0.2
17/06:00pm 19.6 19.4 16.8 84 1.7 ESE 13 15 7 8 1017.4 1017.0 0.2
17/05:30pm 20.0 19.1 16.8 82 2.0 ESE 17 20 9 11 1017.5 1017.1 0.2
17/05:00pm 20.5 19.6 16.9 80 2.2 ESE 17 22 9 12 1017.6 1017.2 0.2
17/04:30pm 20.5 19.9 16.7 79 2.3 ESE 15 20 8 11 1018.1 1017.6 0.2
17/04:00pm 20.8 19.8 16.6 77 2.6 ESE 17 26 9 14 1018.3 1017.8 0.2
17/03:30pm 21.0 20.1 16.8 77 2.6 ESE 17 24 9 13 1018.8 1018.3 0.2
17/03:00pm 20.6 18.7 16.8 79 2.3 E 22 32 12 17 1018.5 1018.0 0.2
17/02:30pm 20.5 19.2 16.9 80 2.2 ESE 19 24 10 13 1019.3 1018.8 0.2
17/02:00pm 20.6 19.5 17.2 81 2.1 ESE 19 24 10 13 1019.7 1019.3 0.2
17/01:30pm 20.1 19.4 16.5 80 2.2 SE 15 20 8 11 1020.5 1020.1 0.2
17/01:00pm 20.3 20.1 16.7 80 2.2 ESE 13 17 7 9 1021.1 1020.7 0.2
17/12:30pm 19.6 19.0 16.6 83 1.8 E 15 17 8 9 1021.8 1021.4 0.2
17/12:00pm 19.9 19.6 16.5 81 2.1 ESE 13 15 7 8 1022.2 1021.8 0.0
17/11:30am 20.1 18.3 15.9 77 2.5 ESE 20 28 11 15 1022.6 1022.1 0.0
17/11:00am 18.8 17.0 16.0 84 1.7 E 20 24 11 13 1023.1 1022.6 0.0
17/10:30am 18.0 16.2 15.6 86 1.4 E 19 26 10 14 1023.6 1023.2 0.0
17/10:00am 17.7 15.3 15.3 86 1.4 E 22 28 12 15 1023.9 1023.5 0.0
17/09:30am 17.2 15.5 15.7 91 0.9 E 19 24 10 13 1024.3 1023.9 0.0
17/09:00am 16.1 15.7 15.3 95 0.5 ESE 11 17 6 9 1024.9 1024.5 1.8
17/08:30am 15.9 15.9 15.1 95 0.5 E 9 13 5 7 1024.9 1024.5 1.8
17/08:00am 15.8 15.0 15.0 95 0.5 SE 13 15 7 8 1024.7 1024.3 1.8
17/07:30am 15.6 15.4 14.6 94 0.6 SSE 9 17 5 9 1024.4 1024.0 1.8
17/07:00am 15.7 14.6 14.2 91 0.9 SSE 13 19 7 10 1023.8 1023.4 0.8
17/06:30am 16.5 15.2 13.8 84 1.5 SSE 13 20 7 11 1023.7 1023.3 0.0
17/06:00am 16.8 15.4 13.3 80 2.0 SSE 13 17 7 9 1023.0 1022.5 0.0
17/05:30am 16.8 14.5 12.9 78 2.2 S 17 22 9 12 1022.7 1022.2 0.0
17/05:00am 17.0 15.4 12.7 76 2.4 SE 13 19 7 10 1022.2 1021.8 0.0
17/04:30am 17.3 14.4 12.2 72 2.8 SSE 19 26 10 14 1021.9 1021.5 0.0
17/04:00am 17.2 13.6 11.9 71 2.9 SSE 22 32 12 17 1021.8 1021.4 0.0
17/03:30am 18.3 13.7 10.9 62 4.0 S 26 41 14 22 1022.2 1021.8 0.0
17/03:00am 18.6 14.9 11.4 63 4.0 S 22 28 12 15 1022.0 1021.6 0.0
17/02:30am 19.8 16.3 10.8 56 5.0 S 20 26 11 14 1022.2 1021.8 0.0
17/02:00am 20.4 17.0 10.5 53 5.4 S 19 24 10 13 1022.2 1021.8 0.0
17/01:30am 20.7 17.1 9.9 50 5.9 SSE 19 24 10 13 1022.0 1021.6 0.0
17/01:00am 21.0 17.7 9.6 48 6.2 SSE 17 22 9 12 1022.3 1021.9 0.0
17/12:30am 20.7 19.1 10.2 51 5.7 S 9 15 5 8 1023.3 1022.9 0.0
17/12:00am 20.1 20.3 10.5 54 5.2 CALM 0 6 0 3 1023.4 1023.0 0.0
 
Date/Time
EST
Temp
°C
App
Temp
°C
Dew
Point
Rel
Hum
%
Delta-T
°C
Wind Press
QNH
hPa
Press
MSL
hPa
Rain
since 9 am
mm
Dir
 
Spd
km/h
Gust
km/h
Spd
kts
Gust
kts
16/11:30pm 21.6 20.1 9.2 45 6.7 S 7 11 4 6 1023.4 1023.0 0.0
16/11:00pm 22.0 19.4 9.5 45 6.8 SSW 13 19 7 10 1023.2 1022.8 0.0
16/10:30pm 22.2 18.9 9.7 45 6.8 S 17 20 9 11 1023.0 1022.5 0.0
16/10:00pm 22.6 19.5 10.4 46 6.7 S 17 20 9 11 1022.8 1022.3 0.0
16/09:30pm 22.7 21.0 12.6 53 5.8 S 13 19 7 10 1022.3 1021.9 0.0
16/09:00pm 20.5 20.5 15.3 72 3.1 SSW 9 11 5 6 1022.2 1021.8 0.0
16/08:30pm 20.9 21.5 15.4 71 3.3 S 6 6 3 3 1021.9 1021.5 0.0
16/08:00pm 21.7 22.2 15.1 66 3.9 S 6 7 3 4 1021.6 1021.2 0.0
16/07:30pm 21.6 22.0 15.2 67 3.8 SSW 7 9 4 5 1021.3 1020.9 0.0

Other Formats:

Comma delimited format used in spreadsheet applications
http://www.bom.gov.au/fwo/IDN60801/IDN60801.94715.axf

JavaScript Object Notation format (JSON) in row-major order
http://www.bom.gov.au/fwo/IDN60801/IDN60801.94715.json